createdAt,value
2022-08-11T00:01:24.482Z,102124.13
2022-08-11T00:03:54.422Z,102119.88
2022-08-11T00:06:27.278Z,102118.31
2022-08-11T00:08:54.888Z,102126.31
2022-08-11T00:11:22.181Z,102121.91
2022-08-11T00:13:53.744Z,102121.56
2022-08-11T00:16:23.776Z,102123.22
2022-08-11T00:18:55.889Z,102123.19
2022-08-11T00:22:02.030Z,102124.06
2022-08-11T00:24:11.571Z,102128.56
2022-08-11T00:26:38.006Z,102119.41
2022-08-11T00:29:12.293Z,102117.09
2022-08-11T00:31:45.679Z,102123.31
2022-08-11T00:34:13.039Z,102129.59
2022-08-11T00:36:49.298Z,102125.13
2022-08-11T00:39:17.727Z,102122.47
2022-08-11T00:42:02.167Z,102119.03
2022-08-11T00:44:35.890Z,102118.75
2022-08-11T00:47:28.831Z,102118.75
2022-08-11T00:50:18.394Z,102114.41
2022-08-11T00:53:10.051Z,102113.56
2022-08-11T00:56:13.677Z,102118.88
2022-08-11T00:59:02.920Z,102120.56
2022-08-11T01:01:41.520Z,102118.09
2022-08-11T01:04:32.497Z,102115.63
2022-08-11T01:06:58.934Z,102120.94
2022-08-11T01:09:53.411Z,102114.72
2022-08-11T01:12:45.708Z,102117.28
2022-08-11T01:15:25.044Z,102119.94
2022-08-11T01:18:13.383Z,102120.91
2022-08-11T01:21:17.242Z,102121.03
2022-08-11T01:24:07.873Z,102126.38
2022-08-11T01:27:19.426Z,102129.06
2022-08-11T01:30:07.569Z,102121.09
2022-08-11T01:33:01.135Z,102124.09
2022-08-11T01:36:02.719Z,102128.66
2022-08-11T01:39:26.421Z,102131.97
2022-08-11T01:42:42.384Z,102126.72
2022-08-11T01:45:17.983Z,102123.91
2022-08-11T01:48:00.745Z,102122.19
2022-08-11T01:50:46.501Z,102120.66
2022-08-11T01:53:26.990Z,102125.94
2022-08-11T01:56:21.229Z,102126.09
2022-08-11T01:59:08.947Z,102129.59
2022-08-11T02:02:02.885Z,102120.22
2022-08-11T02:04:47.069Z,102122.81
2022-08-11T02:07:27.618Z,102126.28
2022-08-11T02:10:36.490Z,102121.22
2022-08-11T02:13:36.667Z,102119.59
2022-08-11T02:16:16.477Z,102130.19
2022-08-11T02:19:08.756Z,102126.75
2022-08-11T02:22:10.816Z,102130.03
2022-08-11T02:25:02.640Z,102116.03
2022-08-11T02:27:42.548Z,102122.88
2022-08-11T02:30:13.989Z,102111.63
2022-08-11T02:33:33.998Z,102116.13
2022-08-11T02:36:33.074Z,102123.28
2022-08-11T02:39:09.489Z,102119.91
2022-08-11T02:42:35.552Z,102116.56
2022-08-11T02:45:11.794Z,102116.56
2022-08-11T02:48:21.834Z,102123.53
2022-08-11T02:51:13.978Z,102124.22
2022-08-11T02:54:14.572Z,102118.91
2022-08-11T02:56:52.157Z,102118.06
2022-08-11T02:59:53.176Z,102113.81
2022-08-11T03:02:31.305Z,102112.34
2022-08-11T03:04:57.581Z,102113.25
2022-08-11T03:08:01.599Z,102108.81
2022-08-11T03:10:42.686Z,102107.97
2022-08-11T03:13:30.766Z,102108.94
2022-08-11T03:16:40.591Z,102111.53
2022-08-11T03:19:11.884Z,102110.63
2022-08-11T03:22:43.057Z,102114.97
2022-08-11T03:25:31.383Z,102122.81
2022-08-11T03:28:28.514Z,102122.09
2022-08-11T03:31:24.679Z,102123.84
2022-08-11T03:34:07.316Z,102123.84
2022-08-11T03:37:14.832Z,102117.78
2022-08-11T03:40:03.304Z,102120.44
2022-08-11T03:42:46.054Z,102124.78
2022-08-11T03:45:24.939Z,102119.31
2022-08-11T03:48:08.242Z,102122.94
2022-08-11T03:50:55.363Z,102118.56
2022-08-11T03:54:03.646Z,102111.59
2022-08-11T03:56:54.833Z,102113.38
2022-08-11T03:59:49.186Z,102121.13
2022-08-11T04:02:54.754Z,102127.34
2022-08-11T04:05:46.565Z,102120.47
2022-08-11T04:08:34.377Z,102118.78
2022-08-11T04:11:31.728Z,102124.00
2022-08-11T04:14:37.845Z,102118.69
2022-08-11T04:17:42.658Z,102123.97
2022-08-11T04:20:33.582Z,102120.44
2022-08-11T04:24:33.279Z,102117.78
2022-08-11T04:26:34.229Z,102116.00
2022-08-11T04:29:25.623Z,102115.94
2022-08-11T04:32:44.335Z,102120.31
2022-08-11T04:35:50.209Z,102118.38
2022-08-11T04:38:36.621Z,102120.16
2022-08-11T04:41:21.865Z,102113.13
2022-08-11T04:44:07.232Z,102115.66
2022-08-11T04:47:10.381Z,102116.34
2022-08-11T04:50:34.123Z,102115.19
2022-08-11T04:53:43.749Z,102113.66
2022-08-11T04:56:55.578Z,102112.63
2022-08-11T04:59:56.401Z,102107.34
2022-08-11T05:03:00.438Z,102107.13
2022-08-11T05:05:57.605Z,102104.22
2022-08-11T05:08:42.913Z,102098.59
2022-08-11T05:11:21.517Z,102096.34
2022-08-11T05:14:09.598Z,102100.25
2022-08-11T05:17:12.069Z,102102.16
2022-08-11T05:19:57.284Z,102107.19
2022-08-11T05:22:48.246Z,102106.91
2022-08-11T05:26:44.926Z,102105.66
2022-08-11T05:29:19.251Z,102107.00
2022-08-11T05:32:13.843Z,102108.97
2022-08-11T05:34:55.257Z,102107.06
2022-08-11T05:37:27.212Z,102108.28
2022-08-11T05:40:19.134Z,102105.56
2022-08-11T05:43:15.867Z,102105.84
2022-08-11T05:46:03.727Z,102100.97
2022-08-11T05:48:55.649Z,102102.22
2022-08-11T05:51:55.337Z,102104.59
2022-08-11T05:54:41.852Z,102101.81
2022-08-11T05:57:09.550Z,102104.28
2022-08-11T05:59:36.667Z,102100.00
2022-08-11T06:02:05.752Z,102109.56
2022-08-11T06:04:34.315Z,102109.44
2022-08-11T06:07:05.570Z,102115.41
2022-08-11T06:09:34.653Z,102113.13
2022-08-11T06:12:05.477Z,102113.53
2022-08-11T06:14:33.864Z,102108.59
2022-08-11T06:17:02.842Z,102117.81
2022-08-11T06:20:08.060Z,102110.69
2022-08-11T06:22:35.203Z,102111.34
2022-08-11T06:25:04.659Z,102106.66
2022-08-11T06:27:35.284Z,102109.66
2022-08-11T06:30:03.298Z,102106.00
2022-08-11T06:32:35.805Z,102105.47
2022-08-11T06:35:19.452Z,102106.94
2022-08-11T06:38:04.497Z,102105.38
2022-08-11T06:40:41.881Z,102106.41
2022-08-11T06:43:19.139Z,102103.72
2022-08-11T06:46:03.062Z,102108.44
2022-08-11T06:48:33.476Z,102107.53
2022-08-11T06:51:12.978Z,102108.88
2022-08-11T06:54:04.342Z,102110.53
2022-08-11T06:57:12.405Z,102107.09
2022-08-11T07:00:01.672Z,102109.13
2022-08-11T07:02:38.350Z,102102.16
2022-08-11T07:05:21.016Z,102103.66
2022-08-11T07:08:34.040Z,102100.91
2022-08-11T07:11:49.219Z,102104.63
2022-08-11T07:14:41.669Z,102101.72
2022-08-11T07:17:13.974Z,102100.25
2022-08-11T07:20:04.919Z,102100.84
2022-08-11T07:22:51.421Z,102102.13
2022-08-11T07:25:37.311Z,102108.59
2022-08-11T07:28:40.297Z,102110.19
2022-08-11T07:31:31.535Z,102102.25
2022-08-11T07:34:21.412Z,102097.97
2022-08-11T07:36:54.581Z,102103.69
2022-08-11T07:39:35.895Z,102106.34
2022-08-11T07:42:08.093Z,102103.19
2022-08-11T07:44:55.422Z,102101.66
2022-08-11T07:47:42.443Z,102102.94
2022-08-11T07:50:28.637Z,102100.28
2022-08-11T07:53:02.596Z,102091.94
2022-08-11T07:55:51.837Z,102095.19
2022-08-11T07:58:45.179Z,102095.59
2022-08-11T08:01:36.677Z,102088.53
2022-08-11T08:04:24.104Z,102103.06
2022-08-11T08:07:09.770Z,102101.09
2022-08-11T08:09:55.153Z,102103.16
2022-08-11T08:12:43.477Z,102103.59
2022-08-11T08:15:30.135Z,102112.28
2022-08-11T08:18:10.070Z,102112.91
2022-08-11T08:20:50.755Z,102110.16
2022-08-11T08:23:32.783Z,102109.34
2022-08-11T08:26:01.381Z,102110.53
2022-08-11T08:28:32.300Z,102106.13
2022-08-11T08:30:59.645Z,102106.53
2022-08-11T08:33:31.108Z,102105.00
2022-08-11T08:36:12.875Z,102103.47
2022-08-11T08:38:39.344Z,102097.44
2022-08-11T08:41:06.425Z,102102.53
2022-08-11T08:43:48.622Z,102096.81
2022-08-11T08:46:19.284Z,102097.41
2022-08-11T08:48:47.394Z,102103.16
2022-08-11T08:52:01.900Z,102104.03
2022-08-11T08:54:33.924Z,102090.44
2022-08-11T08:57:04.788Z,102091.25
2022-08-11T08:59:47.971Z,102085.09
2022-08-11T09:02:33.848Z,102089.66
2022-08-11T09:05:02.328Z,102079.84
2022-08-11T09:07:34.008Z,102080.34
2022-08-11T09:10:07.747Z,102085.94
2022-08-11T09:12:38.555Z,102085.31
2022-08-11T09:15:08.935Z,102076.00
2022-08-11T09:17:48.144Z,102073.22
2022-08-11T09:20:25.798Z,102071.69
2022-08-11T09:26:22.070Z,102075.41
2022-08-11T09:28:58.933Z,102060.72
2022-08-11T09:31:26.728Z,102069.94
2022-08-11T09:33:55.168Z,102060.31
2022-08-11T09:36:40.843Z,102061.47
2022-08-11T09:39:26.878Z,102057.09
2022-08-11T09:42:01.879Z,102062.06
2022-08-11T09:44:51.117Z,102055.66
2022-08-11T09:47:22.003Z,102055.47
2022-08-11T09:49:49.272Z,102051.28
2022-08-11T09:52:15.994Z,102054.31
2022-08-11T09:54:48.238Z,102051.22
2022-08-11T09:57:37.126Z,102039.56
2022-08-11T10:00:12.435Z,102039.34
2022-08-11T10:02:47.095Z,102034.72
2022-08-11T10:05:35.588Z,102034.31
2022-08-11T10:08:03.640Z,102026.47
2022-08-11T10:10:35.673Z,102025.50
2022-08-11T10:14:32.181Z,102029.13
2022-08-11T10:16:15.100Z,102019.56
2022-08-11T10:18:52.199Z,102026.06
2022-08-11T10:22:05.058Z,102023.31
2022-08-11T10:24:50.756Z,102017.59
2022-08-11T10:27:17.809Z,102020.53
2022-08-11T10:30:03.096Z,102016.94
2022-08-11T10:32:58.395Z,102006.59
2022-08-11T10:35:27.999Z,102007.03
2022-08-11T10:38:06.794Z,101998.56
2022-08-11T10:40:46.012Z,102004.13
2022-08-11T10:43:53.339Z,102005.44
2022-08-11T10:46:29.628Z,101994.72
2022-08-11T10:48:59.012Z,101993.91
2022-08-11T10:51:51.190Z,101996.22
2022-08-11T10:54:36.905Z,101990.38
2022-08-11T10:57:23.007Z,101989.88
2022-08-11T10:59:49.862Z,101996.97
2022-08-11T11:02:18.807Z,101986.75
2022-08-11T11:04:59.331Z,101990.47
2022-08-11T11:07:56.074Z,101987.41
2022-08-11T11:10:22.684Z,101988.66
2022-08-11T11:13:18.801Z,101982.69
2022-08-11T11:16:06.325Z,101983.31
2022-08-11T11:18:36.546Z,101987.59
2022-08-11T11:21:07.547Z,101981.28
2022-08-11T11:23:41.344Z,101981.94
2022-08-11T11:26:41.636Z,101971.16
2022-08-11T11:29:38.366Z,101977.09
2022-08-11T11:32:43.503Z,101975.81
2022-08-11T11:35:27.597Z,101979.81
2022-08-11T11:38:04.067Z,101974.78
2022-08-11T11:40:32.626Z,101980.47
2022-08-11T11:43:00.347Z,101983.34
2022-08-11T11:45:27.180Z,101984.75
2022-08-11T11:47:55.872Z,101982.72
2022-08-11T11:50:31.608Z,101981.22
2022-08-11T11:53:01.453Z,101984.34
2022-08-11T11:55:29.421Z,101980.16
2022-08-11T11:58:16.094Z,101973.72
2022-08-11T12:01:05.091Z,101977.88
2022-08-11T12:03:33.336Z,101972.31
2022-08-11T12:06:00.450Z,101972.84
2022-08-11T12:08:27.982Z,101971.16
2022-08-11T12:11:24.308Z,101969.84
2022-08-11T12:13:53.582Z,101969.66
2022-08-11T12:16:34.806Z,101966.16
2022-08-11T12:19:18.272Z,101966.84
2022-08-11T12:22:04.826Z,101960.19
2022-08-11T12:24:52.493Z,101953.81
2022-08-11T12:27:24.110Z,101952.09
2022-08-11T12:30:05.761Z,101952.13
2022-08-11T12:32:35.066Z,101948.97
2022-08-11T12:35:01.945Z,101946.06
2022-08-11T12:37:35.081Z,101938.38
2022-08-11T12:40:42.225Z,101947.97
2022-08-11T12:43:38.896Z,101941.16
2022-08-11T12:46:35.468Z,101938.38
2022-08-11T12:49:30.533Z,101924.97
2022-08-11T12:52:13.573Z,101927.81
2022-08-11T12:55:03.141Z,101921.44
2022-08-11T12:58:01.069Z,101916.22
2022-08-11T13:00:48.845Z,101921.19
2022-08-11T13:03:36.992Z,101906.50
2022-08-11T13:06:04.871Z,101909.94
2022-08-11T13:08:37.748Z,101914.44
2022-08-11T13:11:23.811Z,101902.84
2022-08-11T13:13:57.451Z,101908.63
2022-08-11T13:16:57.689Z,101900.06
2022-08-11T13:19:24.912Z,101904.41
2022-08-11T13:21:53.295Z,101899.09
2022-08-11T13:24:21.521Z,101890.63
2022-08-11T13:26:50.483Z,101891.69
2022-08-11T13:29:23.330Z,101882.38
2022-08-11T13:31:51.280Z,101881.25
2022-08-11T13:34:20.084Z,101876.28
2022-08-11T13:36:50.221Z,101881.09
2022-08-11T13:39:17.616Z,101875.41
2022-08-11T13:41:45.627Z,101873.00
2022-08-11T13:44:21.565Z,101878.03
2022-08-11T13:46:52.971Z,101879.78
2022-08-11T13:49:21.645Z,101868.47
2022-08-11T13:51:49.181Z,101866.03
2022-08-11T13:54:22.808Z,101863.22
2022-08-11T13:56:53.448Z,101866.75
2022-08-11T13:59:23.057Z,101873.47
2022-08-11T14:02:19.639Z,101866.88
2022-08-11T14:04:58.931Z,101862.38
2022-08-11T14:07:41.971Z,101862.63
2022-08-11T14:10:11.956Z,101864.34
2022-08-11T14:13:01.570Z,101866.59
2022-08-11T14:15:33.123Z,101855.59
2022-08-11T14:18:18.334Z,101849.22
2022-08-11T14:21:11.089Z,101848.44
2022-08-11T14:23:48.617Z,101850.19
2022-08-11T14:26:29.538Z,101840.56
2022-08-11T14:29:14.678Z,101841.22
2022-08-11T14:31:50.466Z,101848.91
2022-08-11T14:34:21.811Z,101848.81
2022-08-11T14:36:52.243Z,101839.19
2022-08-11T14:39:22.334Z,101849.03
2022-08-11T14:42:13.263Z,101845.28
2022-08-11T14:45:07.641Z,101841.84
2022-08-11T14:47:38.060Z,101834.75
2022-08-11T14:50:11.669Z,101837.47
2022-08-11T14:52:43.234Z,101840.56
2022-08-11T14:55:30.605Z,101836.81
2022-08-11T14:57:57.971Z,101840.44
2022-08-11T15:00:25.414Z,101839.94
2022-08-11T15:03:12.449Z,101839.44
2022-08-11T15:05:56.582Z,101833.19
2022-08-11T15:08:45.544Z,101837.00
2022-08-11T15:11:32.429Z,101831.44
2022-08-11T15:14:01.150Z,101833.09
2022-08-11T15:16:47.852Z,101825.38
2022-08-11T15:19:15.727Z,101831.97
2022-08-11T15:22:00.639Z,101831.13
2022-08-11T15:24:27.399Z,101827.53
2022-08-11T15:27:19.238Z,101821.31
2022-08-11T15:30:06.817Z,101823.53
2022-08-11T15:32:53.844Z,101819.72
2022-08-11T15:35:39.863Z,101809.53
2022-08-11T15:38:11.613Z,101809.38
2022-08-11T15:40:59.881Z,101809.59
2022-08-11T15:43:49.722Z,101798.44
2022-08-11T15:46:20.497Z,101805.16
2022-08-11T15:48:56.020Z,101802.41
2022-08-11T15:51:39.469Z,101807.97
2022-08-11T15:54:11.227Z,101794.31
2022-08-11T15:56:41.621Z,101813.06
2022-08-11T15:59:41.535Z,101804.78
2022-08-11T16:02:32.108Z,101803.31
2022-08-11T16:05:01.905Z,101799.16
2022-08-11T16:07:32.548Z,101799.94
2022-08-11T16:10:10.608Z,101801.69
2022-08-11T16:13:03.522Z,101795.91
2022-08-11T16:15:51.075Z,101798.69
2022-08-11T16:18:20.970Z,101804.38
2022-08-11T16:20:51.761Z,101804.97
2022-08-11T16:23:19.517Z,101796.31
2022-08-11T16:27:05.521Z,101801.94
2022-08-11T16:28:36.224Z,101799.50
2022-08-11T16:31:03.298Z,101797.38
2022-08-11T16:33:49.985Z,101800.75
2022-08-11T16:36:37.949Z,101796.63
2022-08-11T16:39:06.411Z,101797.03
2022-08-11T16:41:53.822Z,101805.84
2022-08-11T16:44:41.313Z,101804.19
2022-08-11T16:47:11.939Z,101799.69
2022-08-11T16:49:52.155Z,101799.31
2022-08-11T16:52:20.778Z,101801.06
2022-08-11T16:54:47.574Z,101799.28
2022-08-11T16:57:45.744Z,101796.44
2022-08-11T17:00:15.235Z,101798.16
2022-08-11T17:03:05.796Z,101781.72
2022-08-11T17:05:54.750Z,101790.06
2022-08-11T17:08:56.658Z,101778.41
2022-08-11T17:11:45.868Z,101791.47
2022-08-11T17:14:16.345Z,101790.00
2022-08-11T17:16:45.321Z,101782.84
2022-08-11T17:19:17.764Z,101783.03
2022-08-11T17:22:07.719Z,101783.94
2022-08-11T17:24:37.920Z,101778.91
2022-08-11T17:27:07.406Z,101773.81
2022-08-11T17:29:53.865Z,101783.91
2022-08-11T17:32:55.899Z,101775.31
2022-08-11T17:35:31.011Z,101772.63
2022-08-11T17:38:01.591Z,101770.44
2022-08-11T17:40:29.089Z,101777.03
2022-08-11T17:43:16.730Z,101766.94
2022-08-11T17:46:04.378Z,101765.06
2022-08-11T17:48:47.832Z,101769.50
2022-08-11T17:51:38.830Z,101772.28
2022-08-11T17:54:26.014Z,101773.53
2022-08-11T17:57:21.212Z,101773.84
2022-08-11T17:59:52.639Z,101783.72
2022-08-11T18:02:42.333Z,101777.97
2022-08-11T18:05:13.447Z,101778.31
2022-08-11T18:08:01.647Z,101777.25
2022-08-11T18:10:49.191Z,101781.06
2022-08-11T18:13:37.401Z,101782.94
2022-08-11T18:16:22.635Z,101781.19
2022-08-11T18:19:07.368Z,101780.72
2022-08-11T18:22:02.335Z,101784.50
2022-08-11T18:25:20.774Z,101785.53
2022-08-11T18:28:11.076Z,101790.47
2022-08-11T18:31:04.024Z,101789.94
2022-08-11T18:34:07.164Z,101782.47
2022-08-11T18:37:00.221Z,101791.75
2022-08-11T18:39:56.170Z,101781.56
2022-08-11T18:42:42.730Z,101785.75
2022-08-11T18:45:31.074Z,101795.34
2022-08-11T18:48:34.203Z,101796.16
2022-08-11T18:51:30.584Z,101797.06
2022-08-11T18:54:28.939Z,101792.72
2022-08-11T18:57:19.293Z,101796.00
2022-08-11T19:00:07.351Z,101802.09
2022-08-11T19:02:55.763Z,101805.50
2022-08-11T19:06:32.026Z,101798.63
2022-08-11T19:08:53.836Z,101805.66
2022-08-11T19:11:42.775Z,101805.94
2022-08-11T19:14:30.959Z,101808.75
2022-08-11T19:17:44.491Z,101804.13
2022-08-11T19:20:26.971Z,101804.88
2022-08-11T19:23:13.880Z,101811.97
2022-08-11T19:26:01.720Z,101815.53
2022-08-11T19:28:47.978Z,101814.44
2022-08-11T19:31:33.598Z,101814.44
2022-08-11T19:34:19.593Z,101815.81
2022-08-11T19:37:06.214Z,101818.16
2022-08-11T19:39:52.038Z,101825.13
2022-08-11T19:42:38.029Z,101823.97
2022-08-11T19:45:24.654Z,101828.91
2022-08-11T19:51:16.425Z,101828.13
2022-08-11T19:54:03.385Z,101829.44
2022-08-11T19:56:49.544Z,101828.91
2022-08-11T19:59:37.680Z,101830.75
2022-08-11T20:02:24.474Z,101825.97
2022-08-11T20:05:10.144Z,101825.72
2022-08-11T20:07:55.867Z,101820.97
2022-08-11T20:10:41.903Z,101819.50
2022-08-11T20:13:29.649Z,101817.19
2022-08-11T20:16:16.051Z,101820.75
2022-08-11T20:19:02.763Z,101822.09
2022-08-11T20:21:48.899Z,101823.78
2022-08-11T20:24:36.181Z,101827.28
2022-08-11T20:27:25.394Z,101826.78
2022-08-11T20:30:12.641Z,101827.25
2022-08-11T20:33:00.680Z,101825.47
2022-08-11T20:35:46.772Z,101827.53
2022-08-11T20:38:34.476Z,101820.50
2022-08-11T20:41:21.767Z,101822.25
2022-08-11T20:44:09.676Z,101819.00
2022-08-11T20:46:57.617Z,101820.63
2022-08-11T20:49:53.588Z,101819.22
2022-08-11T20:55:53.884Z,101826.06
2022-08-11T21:01:46.986Z,101822.47
2022-08-11T21:04:37.134Z,101826.97
2022-08-11T21:07:41.381Z,101827.41
2022-08-11T21:10:30.126Z,101821.53
2022-08-11T21:13:25.618Z,101830.00
2022-08-11T21:16:25.251Z,101834.50
2022-08-11T21:19:15.920Z,101837.13
2022-08-11T21:22:03.421Z,101839.97
2022-08-11T21:24:51.933Z,101836.66
2022-08-11T21:27:40.156Z,101846.47
2022-08-11T21:30:26.121Z,101843.72
2022-08-11T21:33:12.866Z,101843.91
2022-08-11T21:35:58.715Z,101845.25
2022-08-11T21:38:44.175Z,101842.81
2022-08-11T21:41:31.005Z,101839.25
2022-08-11T21:44:17.328Z,101841.94
2022-08-11T21:47:02.976Z,101840.88
2022-08-11T21:49:49.782Z,101841.44
2022-08-11T21:52:35.016Z,101843.91
2022-08-11T21:55:21.472Z,101845.66
2022-08-11T21:58:07.784Z,101844.63
2022-08-11T22:00:53.283Z,101852.47
2022-08-11T22:03:50.009Z,101847.50
2022-08-11T22:06:36.477Z,101842.66
2022-08-11T22:09:22.460Z,101848.25
2022-08-11T22:12:34.017Z,101851.56
2022-08-11T22:15:13.856Z,101854.75
2022-08-11T22:17:58.691Z,101855.50
2022-08-11T22:20:46.212Z,101852.38
2022-08-11T22:23:36.945Z,101860.19
2022-08-11T22:26:22.744Z,101854.19
2022-08-11T22:29:08.007Z,101855.94
2022-08-11T22:31:55.179Z,101853.66
2022-08-11T22:34:52.994Z,101848.81
2022-08-11T22:37:40.564Z,101842.88
2022-08-11T22:40:28.353Z,101844.78
2022-08-11T22:43:13.658Z,101845.31
2022-08-11T22:45:58.938Z,101850.41
2022-08-11T22:48:47.973Z,101847.47
2022-08-11T22:51:34.340Z,101844.31
2022-08-11T22:54:21.762Z,101846.38
2022-08-11T22:57:08.348Z,101843.22
2022-08-11T22:59:55.897Z,101849.94
2022-08-11T23:02:41.507Z,101845.25
2022-08-11T23:05:28.358Z,101848.22
2022-08-11T23:08:15.311Z,101844.75
2022-08-11T23:11:01.269Z,101848.16
2022-08-11T23:13:49.027Z,101849.41
2022-08-11T23:16:35.418Z,101854.06
2022-08-11T23:20:07.722Z,101854.06
2022-08-11T23:22:39.445Z,101856.75
2022-08-11T23:25:32.653Z,101850.63
2022-08-11T23:28:42.708Z,101855.75
2022-08-11T23:31:30.004Z,101850.09
2022-08-11T23:35:04.021Z,101847.59
2022-08-11T23:37:47.853Z,101845.81
2022-08-11T23:40:32.703Z,101851.66
2022-08-11T23:43:18.928Z,101852.41
2022-08-11T23:46:04.314Z,101842.94
2022-08-11T23:48:50.458Z,101845.44
2022-08-11T23:51:41.248Z,101841.97
2022-08-11T23:54:27.718Z,101844.53
2022-08-11T23:57:13.514Z,101844.66
2022-08-11T23:59:58.586Z,101843.81
